Time;durP1;ratioP1;P1;durP2;ratioP2;P2;SDS_P1;SDS_P2;PMS_P1;PMS_P2;Temp;Humidity;BMP_temperature;BMP_pressure;BME280_temperature;BME280_humidity;BME280_pressure;Samples;Min_cycle;Max_cycle;Signal;HPM_P1;HPM_P2
2021/10/18 00:01:42;;;;;;;22.98;12.95;;;;;;;23.28;44.41;100698.31;4424958;32;20041;-68
2021/10/18 00:04:07;;;;;;;20.37;12.18;;;;;;;23.60;43.90;100701.56;4425842;32;20059;-68
2021/10/18 00:06:33;;;;;;;20.95;12.15;;;;;;;23.49;43.69;100702.41;4422840;32;20034;-68
2021/10/18 00:09:00;;;;;;;17.25;11.43;;;;;;;23.51;43.69;100701.87;4428415;32;20033;-68
2021/10/18 00:11:26;;;;;;;22.50;12.15;;;;;;;23.94;42.99;100697.19;4426251;32;20463;-68
2021/10/18 00:13:53;;;;;;;22.75;12.88;;;;;;;23.86;43.11;100701.13;4426018;32;20114;-68
2021/10/18 00:16:19;;;;;;;19.48;11.20;;;;;;;23.72;43.19;100700.19;4425802;32;20117;-68
2021/10/18 00:18:45;;;;;;;18.45;11.68;;;;;;;23.88;42.74;100699.31;4425427;32;20076;-68
2021/10/18 00:21:11;;;;;;;20.23;11.15;;;;;;;23.66;43.30;100701.53;4424234;32;20126;-68
2021/10/18 00:23:39;;;;;;;19.42;11.43;;;;;;;23.91;42.62;100692.50;4425081;32;20072;-68
2021/10/18 00:26:05;;;;;;;19.33;10.70;;;;;;;24.00;42.68;100694.31;4425894;32;20131;-68
2021/10/18 00:28:31;;;;;;;21.95;10.90;;;;;;;23.91;42.59;100697.47;4425848;32;20066;-68
2021/10/18 00:30:58;;;;;;;18.15;10.82;;;;;;;23.84;42.80;100695.94;4425035;32;20026;-68
2021/10/18 00:33:25;;;;;;;20.33;10.82;;;;;;;23.76;42.97;100691.28;4424482;32;20029;-68
2021/10/18 00:35:50;;;;;;;21.75;12.00;;;;;;;23.59;43.01;100693.47;4422779;32;20060;-68
2021/10/18 00:38:16;;;;;;;19.10;12.18;;;;;;;23.36;43.78;100695.66;4425340;32;20481;-68
2021/10/18 00:40:42;;;;;;;18.48;10.80;;;;;;;23.32;43.72;100692.28;4423299;32;20042;-68
2021/10/18 00:43:07;;;;;;;24.85;12.43;;;;;;;23.24;43.70;100692.06;4425060;32;20548;-68
2021/10/18 00:45:34;;;;;;;21.48;12.10;;;;;;;23.06;44.25;100692.59;4423864;32;20574;-68
2021/10/18 00:48:01;;;;;;;23.45;12.32;;;;;;;23.08;44.22;100692.88;4424877;32;20439;-68
2021/10/18 00:50:27;;;;;;;21.83;12.82;;;;;;;23.11;44.30;100691.03;4424500;32;20366;-68
2021/10/18 00:52:53;;;;;;;23.42;13.68;;;;;;;23.22;44.14;100696.72;4426306;32;20542;-68
2021/10/18 00:55:19;;;;;;;20.77;12.30;;;;;;;23.07;44.50;100696.28;4423024;32;20558;-68
2021/10/18 00:57:46;;;;;;;26.08;13.18;;;;;;;23.05;44.56;100698.88;4424259;32;20077;-68
2021/10/18 01:00:13;;;;;;;22.33;12.18;;;;;;;23.14;44.48;100707.97;4424879;32;20130;-68
2021/10/18 01:02:39;;;;;;;25.67;13.38;;;;;;;23.16;44.44;100713.19;4422006;32;20073;-68
2021/10/18 01:05:06;;;;;;;19.85;12.80;;;;;;;23.01;44.55;100702.00;4426468;32;20370;-68
2021/10/18 01:07:33;;;;;;;20.42;13.15;;;;;;;22.87;45.01;100690.81;4422151;32;20038;-68
2021/10/18 01:10:00;;;;;;;21.15;13.02;;;;;;;22.76;45.37;100697.38;4423150;32;20053;-68
2021/10/18 01:12:26;;;;;;;20.35;13.68;;;;;;;22.56;45.83;100694.00;4424169;32;20347;-68
2021/10/18 01:14:52;;;;;;;19.42;13.57;;;;;;;22.32;46.49;100693.72;4424053;32;20078;-68
2021/10/18 01:17:18;;;;;;;24.80;13.07;;;;;;;22.37;46.10;100693.69;4426133;32;20077;-68
2021/10/18 01:19:44;;;;;;;19.37;13.10;;;;;;;22.47;46.05;100686.41;4422736;32;20097;-68
2021/10/18 01:22:10;;;;;;;20.83;13.07;;;;;;;22.50;45.82;100685.41;4423467;32;20666;-68
2021/10/18 01:24:37;;;;;;;18.85;12.43;;;;;;;22.48;45.96;100690.84;4425267;32;20101;-68
2021/10/18 01:27:04;;;;;;;24.67;12.82;;;;;;;22.54;45.93;100690.87;4423850;32;20442;-68
2021/10/18 01:29:32;;;;;;;21.70;13.75;;;;;;;22.38;46.27;100692.41;4423242;32;20454;-68
2021/10/18 01:31:57;;;;;;;20.65;13.60;;;;;;;22.34;46.39;100696.84;4423828;32;20085;-68
2021/10/18 01:34:23;;;;;;;21.55;12.70;;;;;;;22.26;46.47;100687.19;4421342;32;20042;-68
2021/10/18 01:36:49;;;;;;;20.35;13.15;;;;;;;22.15;46.74;100690.06;4423744;32;20072;-68
2021/10/18 01:39:15;;;;;;;21.05;14.45;;;;;;;22.11;46.80;100678.84;4425769;32;20098;-68
2021/10/18 01:41:41;;;;;;;24.98;14.77;;;;;;;22.07;46.91;100686.94;4425511;32;20422;-68
2021/10/18 01:44:06;;;;;;;25.55;14.60;;;;;;;22.00;47.02;100686.66;4423363;32;20092;-68
2021/10/18 01:46:32;;;;;;;24.75;14.93;;;;;;;21.94;47.26;100691.59;4424494;32;20403;-68
2021/10/18 01:48:57;;;;;;;27.80;15.88;;;;;;;21.67;47.96;100688.09;4422726;32;20081;-68
2021/10/18 01:51:23;;;;;;;26.17;16.10;;;;;;;21.82;47.40;100687.16;4423263;32;20176;-68
2021/10/18 01:53:49;;;;;;;28.92;16.65;;;;;;;21.84;47.32;100685.31;4425733;32;20030;-68
2021/10/18 01:56:14;;;;;;;33.03;17.37;;;;;;;21.81;47.44;100674.87;4423538;32;20077;-68
2021/10/18 01:58:40;;;;;;;27.77;16.70;;;;;;;21.75;47.69;100679.06;4424422;32;20214;-68
2021/10/18 02:01:06;;;;;;;26.75;16.05;;;;;;;21.74;47.79;100694.66;4424563;32;20037;-68
2021/10/18 02:03:32;;;;;;;32.17;18.95;;;;;;;21.69;47.90;100681.84;4424874;32;20108;-67
2021/10/18 02:05:58;;;;;;;29.65;18.65;;;;;;;21.60;48.01;100677.16;4422891;32;20109;-67
2021/10/18 02:08:24;;;;;;;30.62;19.23;;;;;;;21.69;47.95;100662.59;4423836;32;20034;-67
2021/10/18 02:10:49;;;;;;;29.63;18.80;;;;;;;21.70;47.93;100658.44;4424572;32;20100;-67
2021/10/18 02:13:15;;;;;;;33.45;19.83;;;;;;;21.75;47.86;100656.91;4423706;32;20522;-67
2021/10/18 02:15:40;;;;;;;32.67;19.92;;;;;;;21.67;47.98;100650.09;4425372;32;20073;-67
2021/10/18 02:18:07;;;;;;;31.12;20.80;;;;;;;21.73;47.87;100662.38;4420008;32;20085;-67
2021/10/18 02:20:33;;;;;;;32.13;20.02;;;;;;;21.59;48.17;100657.63;4423092;32;20417;-67
2021/10/18 02:22:58;;;;;;;35.67;21.70;;;;;;;21.79;47.59;100645.22;4421772;32;20038;-67
2021/10/18 02:25:24;;;;;;;33.72;20.55;;;;;;;21.81;47.62;100648.34;4422953;32;20105;-67
2021/10/18 02:27:49;;;;;;;34.28;21.95;;;;;;;21.84;47.66;100653.03;4426685;32;20533;-67
2021/10/18 02:30:15;;;;;;;31.27;20.73;;;;;;;21.85;47.65;100648.88;4424181;32;20081;-67
2021/10/18 02:32:41;;;;;;;33.63;22.23;;;;;;;21.75;47.94;100656.91;4426534;32;20599;-67
2021/10/18 02:35:09;;;;;;;39.83;24.10;;;;;;;21.75;47.79;100647.56;4426423;32;20095;-67
2021/10/18 02:37:35;;;;;;;38.40;22.48;;;;;;;21.86;47.84;100653.28;4424716;32;20072;-67
2021/10/18 02:40:01;;;;;;;32.10;19.52;;;;;;;21.84;47.79;100650.16;4428071;32;20460;-67
2021/10/18 02:42:27;;;;;;;35.38;20.62;;;;;;;21.73;47.73;100650.91;4426265;32;20065;-67
2021/10/18 02:44:52;;;;;;;36.53;22.05;;;;;;;21.73;47.76;100659.50;4423770;32;20060;-67
2021/10/18 02:47:18;;;;;;;33.33;21.17;;;;;;;21.66;47.81;100649.31;4424743;32;20026;-67
2021/10/18 02:49:44;;;;;;;38.00;23.42;;;;;;;21.57;47.99;100661.00;4424944;32;20033;-66
2021/10/18 02:52:10;;;;;;;38.45;22.62;;;;;;;21.57;48.05;100658.13;4424026;32;20030;-67
2021/10/18 02:54:35;;;;;;;34.35;21.92;;;;;;;21.59;48.06;100667.00;4424412;32;20109;-67
2021/10/18 02:57:02;;;;;;;37.22;23.42;;;;;;;21.47;48.35;100662.53;4425943;32;20517;-67
2021/10/18 02:59:28;;;;;;;37.92;23.02;;;;;;;18.68;48.78;100235.50;4426759;32;20304;-67
2021/10/18 03:01:54;;;;;;;36.10;22.85;;;;;;;21.19;49.03;100660.87;4423773;32;20060;-67
2021/10/18 03:04:20;;;;;;;39.50;24.60;;;;;;;21.22;48.93;100654.91;4424173;32;20085;-67
2021/10/18 03:06:46;;;;;;;39.92;24.00;;;;;;;21.36;48.61;100659.62;4426422;32;20124;-67
2021/10/18 03:09:12;;;;;;;37.13;24.05;;;;;;;21.26;48.70;100658.31;4427148;32;20037;-67
2021/10/18 03:11:38;;;;;;;40.60;24.42;;;;;;;21.42;48.53;100666.16;4426435;32;20355;-67
2021/10/18 03:14:04;;;;;;;39.17;24.25;;;;;;;21.26;48.70;100671.84;4424735;32;20119;-67
2021/10/18 03:16:31;;;;;;;40.40;24.85;;;;;;;21.19;48.94;100669.44;4426857;32;20038;-67
2021/10/18 03:18:56;;;;;;;42.33;26.20;;;;;;;21.31;48.72;100663.28;4427409;32;20051;-67
2021/10/18 03:21:23;;;;;;;40.00;25.70;;;;;;;21.09;49.00;100666.03;4426370;32;20062;-67
2021/10/18 03:23:48;;;;;;;44.05;25.40;;;;;;;21.23;48.68;100656.47;4426839;32;20054;-66
2021/10/18 03:26:15;;;;;;;38.97;24.65;;;;;;;21.18;48.90;100647.88;4425189;32;20059;-67
2021/10/18 03:28:43;;;;;;;42.05;25.45;;;;;;;21.32;48.65;100638.28;4425862;32;20478;-67
2021/10/18 03:31:09;;;;;;;38.88;25.33;;;;;;;21.29;48.64;100634.38;4422276;32;20483;-67
2021/10/18 03:33:37;;;;;;;38.83;24.08;;;;;;;21.27;48.63;100619.03;4424941;32;20123;-67
2021/10/18 03:36:04;;;;;;;48.08;25.60;;;;;;;21.52;48.11;100626.63;4424695;32;20094;-67
2021/10/18 03:38:30;;;;;;;37.75;24.20;;;;;;;21.41;48.32;100618.00;4424643;32;20029;-67
2021/10/18 03:40:56;;;;;;;42.85;24.33;;;;;;;21.32;48.42;100607.59;4423094;32;20094;-67
2021/10/18 03:43:22;;;;;;;39.28;23.60;;;;;;;21.26;48.42;100597.44;4422764;32;20034;-67
2021/10/18 03:45:48;;;;;;;37.72;22.98;;;;;;;21.29;48.28;100611.47;4423886;32;20077;-67
2021/10/18 03:48:14;;;;;;;42.62;23.75;;;;;;;21.26;48.11;100612.50;4424702;32;20060;-67
2021/10/18 03:50:40;;;;;;;40.38;23.45;;;;;;;21.21;48.20;100633.31;4425274;32;20096;-67
2021/10/18 03:53:06;;;;;;;36.55;23.42;;;;;;;21.29;48.11;100642.16;4426039;32;20077;-67
2021/10/18 03:55:32;;;;;;;40.75;26.02;;;;;;;21.35;47.87;100626.59;4425437;32;20022;-67
2021/10/18 03:57:57;;;;;;;37.22;23.30;;;;;;;21.23;48.09;100642.16;4424122;32;20195;-67
2021/10/18 04:00:25;;;;;;;36.17;22.90;;;;;;;21.22;48.01;100636.94;4422374;32;20038;-67
2021/10/18 04:02:51;;;;;;;40.03;22.75;;;;;;;20.98;48.21;100625.91;4422849;32;20324;-67
2021/10/18 04:05:17;;;;;;;35.42;23.05;;;;;;;21.12;47.97;100622.09;4426338;32;20083;-67
2021/10/18 04:07:46;;;;;;;41.03;23.45;;;;;;;21.04;48.28;100628.81;4425991;32;20083;-66
2021/10/18 04:10:14;;;;;;;39.83;23.83;;;;;;;21.03;48.09;100625.19;4421265;32;20081;-67
2021/10/18 04:12:40;;;;;;;39.08;23.00;;;;;;;21.25;47.83;100633.84;4428173;32;20139;-67
2021/10/18 04:15:06;;;;;;;40.00;22.45;;;;;;;21.09;47.97;100636.63;4423871;32;20050;-67
2021/10/18 04:17:31;;;;;;;38.65;22.20;;;;;;;21.14;47.91;100635.91;4424532;32;21093;-67
2021/10/18 04:19:58;;;;;;;41.03;22.10;;;;;;;21.02;47.84;100617.09;4421735;32;20129;-67
2021/10/18 04:22:24;;;;;;;36.83;21.85;;;;;;;20.85;47.62;100613.34;4425643;32;21131;-66
2021/10/18 04:24:49;;;;;;;36.08;22.10;;;;;;;20.81;47.59;100636.47;4425663;32;20064;-66
2021/10/18 04:27:15;;;;;;;33.83;21.02;;;;;;;20.82;47.91;100651.56;4425195;32;20085;-66
2021/10/18 04:29:41;;;;;;;37.50;22.87;;;;;;;20.85;47.93;100634.16;4423962;32;20097;-66
2021/10/18 04:32:07;;;;;;;34.53;21.87;;;;;;;20.91;48.07;100614.16;4425386;32;20107;-67
2021/10/18 04:34:33;;;;;;;41.00;23.23;;;;;;;21.00;47.83;100622.56;4424613;32;20145;-67
2021/10/18 04:36:59;;;;;;;41.22;24.02;;;;;;;21.15;47.55;100617.41;4423306;32;20073;-67
2021/10/18 04:39:24;;;;;;;39.35;22.87;;;;;;;21.15;47.65;100623.94;4424718;32;20077;-67
2021/10/18 04:41:50;;;;;;;40.92;23.83;;;;;;;21.12;47.46;100610.66;4424951;32;20057;-67
2021/10/18 04:44:16;;;;;;;38.15;23.00;;;;;;;20.88;47.94;100595.94;4423915;32;20075;-67
2021/10/18 04:46:42;;;;;;;38.88;23.85;;;;;;;21.07;47.43;100625.72;4422098;32;20133;-66
2021/10/18 04:49:08;;;;;;;43.65;25.77;;;;;;;20.90;47.98;100647.69;4424364;32;20458;-67
2021/10/18 04:51:33;;;;;;;43.70;25.25;;;;;;;20.76;48.35;100627.84;4422820;32;20131;-67
2021/10/18 04:53:59;;;;;;;42.40;23.87;;;;;;;20.91;47.79;100634.97;4422773;32;20496;-67
2021/10/18 04:56:25;;;;;;;40.42;24.15;;;;;;;21.21;47.41;100621.88;4424022;32;20077;-67
2021/10/18 04:58:51;;;;;;;39.63;23.25;;;;;;;21.24;47.17;100611.47;4427114;32;20401;-67
2021/10/18 05:01:16;;;;;;;42.42;25.67;;;;;;;21.19;47.39;100627.31;4423908;32;20081;-67
2021/10/18 05:03:42;;;;;;;39.63;23.62;;;;;;;21.33;46.71;100623.44;4426498;32;20053;-67
2021/10/18 05:06:08;;;;;;;37.60;22.77;;;;;;;21.53;46.77;100605.28;4422852;32;20141;-67
2021/10/18 05:08:33;;;;;;;39.50;23.70;;;;;;;21.73;46.48;100616.53;4422323;32;20038;-67
2021/10/18 05:10:59;;;;;;;38.78;23.27;;;;;;;21.65;46.37;100621.97;4425399;32;20041;-67
2021/10/18 05:13:25;;;;;;;40.33;23.30;;;;;;;21.72;46.25;100609.22;4424291;32;20072;-67
2021/10/18 05:15:52;;;;;;;35.88;22.30;;;;;;;21.70;46.06;100609.75;4424784;32;20377;-67
2021/10/18 05:18:19;;;;;;;39.47;23.95;;;;;;;21.54;46.56;100610.50;4423366;32;20073;-67
2021/10/18 05:20:46;;;;;;;44.22;24.42;;;;;;;21.46;46.92;100614.38;4426015;32;20164;-67
2021/10/18 05:23:12;;;;;;;40.67;23.42;;;;;;;21.48;46.68;100618.28;4422852;32;20030;-67
2021/10/18 05:25:38;;;;;;;40.15;22.83;;;;;;;21.03;47.52;100610.88;4424376;32;20510;-67
2021/10/18 05:28:04;;;;;;;37.33;22.52;;;;;;;20.91;47.56;100585.53;4423599;32;20070;-66
2021/10/18 05:30:30;;;;;;;37.78;22.37;;;;;;;20.86;47.36;100592.03;4421238;32;20117;-67
2021/10/18 05:32:57;;;;;;;36.47;22.17;;;;;;;20.57;48.00;100589.53;4423495;32;20066;-67
2021/10/18 05:35:24;;;;;;;37.95;23.05;;;;;;;20.98;47.16;100597.31;4424464;32;20022;-66
2021/10/18 05:37:51;;;;;;;40.95;21.83;;;;;;;20.91;47.16;100591.25;4423593;32;20125;-68
2021/10/18 05:40:19;;;;;;;38.42;21.27;;;;;;;20.33;48.14;100558.47;4423479;32;20473;-68
2021/10/18 05:42:45;;;;;;;39.88;23.45;;;;;;;20.42;48.05;100543.97;4420835;32;20855;-68
2021/10/18 05:45:11;;;;;;;39.85;22.27;;;;;;;20.38;47.88;100577.75;4423749;32;20134;-68
2021/10/18 05:47:58;;;;;;;36.70;22.10;;;;;;;20.22;48.48;100584.09;4425510;32;20399;-68
2021/10/18 05:50:27;;;;;;;40.20;22.15;;;;;;;20.54;47.65;100585.63;4422446;32;20127;-68
2021/10/18 05:52:53;;;;;;;37.42;22.77;;;;;;;20.12;48.91;100562.75;4424609;32;20037;-68
2021/10/18 05:55:19;;;;;;;41.55;22.48;;;;;;;19.92;49.15;100537.12;4424035;32;20096;-68
2021/10/18 05:57:51;;;;;;;38.95;21.87;;;;;;;20.20;48.32;100535.28;4421685;32;20081;-68
2021/10/18 06:00:17;;;;;;;36.22;21.67;;;;;;;20.38;48.12;100536.94;4427378;32;20034;-68
2021/10/18 06:02:43;;;;;;;38.95;21.85;;;;;;;19.94;48.71;100540.25;4426815;32;20116;-68
2021/10/18 06:05:09;;;;;;;37.28;20.62;;;;;;;20.07;48.45;100556.97;4421805;32;20430;-68
2021/10/18 06:07:35;;;;;;;38.80;22.37;;;;;;;19.97;48.50;100556.34;4425107;32;20073;-68
2021/10/18 06:10:01;;;;;;;40.63;22.02;;;;;;;20.07;48.40;100543.47;4425442;32;20396;-68
2021/10/18 06:12:27;;;;;;;39.83;22.10;;;;;;;20.02;48.51;100566.25;4426012;32;20085;-68
2021/10/18 06:14:53;;;;;;;37.72;20.77;;;;;;;19.93;48.79;100552.16;4427094;32;20130;-68
2021/10/18 06:17:19;;;;;;;37.28;20.65;;;;;;;19.79;48.93;100539.63;4426529;32;20069;-68
2021/10/18 06:19:45;;;;;;;39.78;21.70;;;;;;;19.66;49.14;100544.94;4427360;32;20052;-68
2021/10/18 06:22:10;;;;;;;37.70;21.40;;;;;;;19.69;48.93;100532.50;4425170;32;20046;-68
2021/10/18 06:24:36;;;;;;;39.95;21.75;;;;;;;19.43;49.28;100537.47;4425784;32;20033;-68
2021/10/18 06:27:02;;;;;;;43.10;23.60;;;;;;;19.32;49.79;100526.75;4425576;32;20096;-68
2021/10/18 06:29:29;;;;;;;43.90;21.60;;;;;;;19.48;49.37;100534.66;4427132;32;20096;-68
2021/10/18 06:31:55;;;;;;;40.60;22.80;;;;;;;19.37;49.73;100528.87;4428631;32;20409;-68
2021/10/18 06:34:21;;;;;;;40.17;22.73;;;;;;;19.42;49.49;100522.41;4425410;32;20072;-68
2021/10/18 06:36:48;;;;;;;37.03;21.30;;;;;;;19.15;50.36;100544.94;4421116;32;20060;-68
2021/10/18 06:39:13;;;;;;;36.05;20.73;;;;;;;19.02;50.59;100568.13;4422200;32;20121;-68
2021/10/18 06:41:39;;;;;;;37.78;22.33;;;;;;;19.26;50.08;100531.59;4425594;32;20631;-68
2021/10/18 06:44:05;;;;;;;39.20;22.25;;;;;;;19.34;50.04;100543.34;4423497;32;20041;-68
2021/10/18 06:46:30;;;;;;;46.00;21.87;;;;;;;19.34;49.88;100549.84;4419400;32;20089;-68
2021/10/18 06:48:58;;;;;;;39.88;22.08;;;;;;;19.50;49.65;100557.00;4417536;32;20414;-68
2021/10/18 06:51:30;;;;;;;42.70;21.15;;;;;;;19.69;48.92;100527.59;4418480;32;20471;-68
2021/10/18 06:53:56;;;;;;;43.97;22.48;;;;;;;19.85;48.96;100529.00;4415834;32;20781;-68
2021/10/18 06:56:21;;;;;;;42.42;21.27;;;;;;;19.80;49.05;100536.22;4415661;32;20204;-68
2021/10/18 06:58:47;;;;;;;39.50;20.48;;;;;;;19.82;49.06;100534.97;4415323;32;20093;-68
2021/10/18 07:01:13;;;;;;;40.67;21.98;;;;;;;19.83;49.07;100531.59;4412450;32;20144;-68
2021/10/18 07:03:41;;;;;;;37.45;20.42;;;;;;;19.69;49.33;100541.06;4405416;32;20091;-68
2021/10/18 07:06:07;;;;;;;35.53;20.95;;;;;;;19.70;49.74;100554.84;4412583;32;20097;-68
2021/10/18 07:08:32;;;;;;;39.45;21.42;;;;;;;19.81;49.48;100551.31;4411675;32;20065;-68
2021/10/18 07:10:58;;;;;;;39.38;21.50;;;;;;;20.00;49.31;100555.34;4416716;32;20069;-69
2021/10/18 07:13:24;;;;;;;35.78;20.48;;;;;;;20.26;48.65;100555.31;4410369;32;20085;-69
2021/10/18 07:15:50;;;;;;;36.55;20.25;;;;;;;20.33;48.22;100546.25;4413172;32;20081;-70
2021/10/18 07:18:16;;;;;;;33.67;19.92;;;;;;;20.65;47.78;100536.31;4412353;32;20624;-69
2021/10/18 07:20:42;;;;;;;40.38;19.80;;;;;;;20.77;47.50;100547.25;4417111;32;20608;-68
2021/10/18 07:23:10;;;;;;;36.70;19.50;;;;;;;20.98;46.88;100542.94;4412605;32;20116;-69
2021/10/18 07:25:37;;;;;;;35.58;19.87;;;;;;;20.99;47.18;100529.44;4414549;32;20087;-69
2021/10/18 07:28:04;;;;;;;33.72;19.55;;;;;;;21.33;46.32;100531.84;4410777;32;20137;-69
2021/10/18 07:30:31;;;;;;;37.10;19.17;;;;;;;21.58;45.76;100536.59;4409373;32;20078;-69
2021/10/18 07:32:57;;;;;;;35.78;18.95;;;;;;;21.74;45.37;100534.25;4414776;32;20052;-69
2021/10/18 07:35:28;;;;;;;33.75;20.50;;;;;;;21.59;45.58;100531.63;4414044;32;20042;-69
2021/10/18 07:37:55;;;;;;;38.63;21.25;;;;;;;21.66;45.66;100536.81;4412718;32;20423;-69
2021/10/18 07:40:22;;;;;;;35.60;20.65;;;;;;;21.51;45.97;100542.03;4415373;32;20447;-69
2021/10/18 07:42:48;;;;;;;34.08;20.02;;;;;;;21.77;45.81;100542.59;4412545;32;20145;-69
2021/10/18 07:45:13;;;;;;;33.47;19.42;;;;;;;21.78;45.71;100535.56;4415844;32;20078;-69
2021/10/18 07:47:41;;;;;;;33.97;19.20;;;;;;;21.99;45.48;100527.50;4412243;32;20080;-71
2021/10/18 07:50:10;;;;;;;36.35;21.77;;;;;;;22.27;45.01;100520.38;4414091;32;20125;-70
2021/10/18 07:52:38;;;;;;;36.53;20.35;;;;;;;21.92;45.54;100519.41;4415577;32;20097;-70
2021/10/18 07:55:07;;;;;;;32.78;20.73;;;;;;;22.17;45.42;100524.06;4412055;32;20065;-70
2021/10/18 07:57:33;;;;;;;39.63;20.90;;;;;;;22.27;45.24;100502.44;4413180;32;20082;-70
2021/10/18 07:59:59;;;;;;;39.58;21.23;;;;;;;22.05;45.68;100516.78;4414067;32;20099;-70
2021/10/18 08:02:26;;;;;;;35.03;20.17;;;;;;;21.80;46.41;100523.56;4413852;32;20558;-69
2021/10/18 08:04:51;;;;;;;36.47;20.27;;;;;;;22.06;46.05;100501.16;4412244;32;20411;-69
2021/10/18 08:07:17;;;;;;;36.25;19.95;;;;;;;21.72;46.93;100497.50;4417087;32;20153;-69
2021/10/18 08:09:43;;;;;;;37.10;20.12;;;;;;;21.70;46.70;100506.62;4415591;32;20077;-69
2021/10/18 08:12:09;;;;;;;36.53;20.42;;;;;;;21.95;46.61;100501.16;4415493;32;20081;-69
2021/10/18 08:14:34;;;;;;;41.70;23.02;;;;;;;21.94;46.77;100488.94;4414422;32;20104;-69
2021/10/18 08:17:04;;;;;;;40.00;21.95;;;;;;;21.07;48.56;100508.37;4415845;32;20085;-69
2021/10/18 08:19:31;;;;;;;46.13;23.73;;;;;;;21.61;47.69;100521.22;4415439;32;20486;-69
2021/10/18 08:21:57;;;;;;;41.60;21.95;;;;;;;22.13;46.78;100500.63;4414086;32;20466;-69
2021/10/18 08:24:22;;;;;;;40.75;22.17;;;;;;;22.18;46.64;100517.03;4415312;32;20209;-69
2021/10/18 08:26:49;;;;;;;37.70;20.62;;;;;;;22.01;46.66;100517.06;4415971;32;20383;-69
2021/10/18 08:29:14;;;;;;;40.88;21.58;;;;;;;22.39;45.83;100498.97;4411739;32;20226;-69
2021/10/18 08:31:40;;;;;;;41.63;21.17;;;;;;;22.22;45.95;100514.69;4412576;32;20727;-70
2021/10/18 08:34:06;;;;;;;34.70;20.65;;;;;;;22.28;45.94;100516.25;4416870;32;20141;-69
2021/10/18 08:36:36;;;;;;;40.45;21.17;;;;;;;22.43;46.05;100516.69;4416970;32;20073;-69
2021/10/18 08:41:57;;;;;;;34.55;19.50;;;;;;;22.58;46.01;100502.09;4416862;32;20073;-69
2021/10/18 08:44:23;;;;;;;40.55;20.90;;;;;;;22.41;46.46;100513.59;4413981;32;20087;-69
2021/10/18 08:46:52;;;;;;;37.22;21.33;;;;;;;22.26;46.89;100506.59;4418473;32;20050;-69
2021/10/18 08:49:18;;;;;;;37.75;20.67;;;;;;;;;;4416523;32;20105;-69
2021/10/18 08:51:44;;;;;;;37.42;20.33;;;;;;;22.40;46.62;100516.97;4414844;32;20459;-69
2021/10/18 08:54:10;;;;;;;35.70;20.23;;;;;;;21.99;47.35;100513.94;4413943;32;20082;-69
2021/10/18 08:56:37;;;;;;;36.40;20.10;;;;;;;22.35;46.79;100507.09;4414196;32;20522;-69
2021/10/18 08:59:04;;;;;;;37.28;20.55;;;;;;;22.76;46.07;100499.41;4416797;32;20473;-69
2021/10/18 09:01:50;;;;;;;37.88;20.75;;;;;;;22.49;46.49;100517.47;4414339;32;20101;-68
2021/10/18 09:06:52;;;;;;;32.30;18.90;;;;;;;23.32;45.33;100468.31;3985910;31;15137201;-69
2021/10/18 09:09:23;;;;;;;29.37;18.37;;;;;;;23.32;45.33;100468.31;4445621;32;20107;-69
2021/10/18 09:11:52;;;;;;;32.92;17.95;;;;;;;22.14;47.47;100454.25;4444408;32;20077;-69
2021/10/18 09:14:18;;;;;;;29.27;18.42;;;;;;;22.89;45.92;100476.63;4446466;32;20071;-69
2021/10/18 09:16:45;;;;;;;36.03;19.10;;;;;;;22.74;46.33;100478.28;4446986;32;20080;-69
2021/10/18 09:19:15;;;;;;;32.88;17.87;;;;;;;23.09;45.86;100486.94;4443424;32;20037;-69
2021/10/18 09:27:17;;;;;;;31.75;18.58;;;;;;;23.51;44.47;100495.03;3987956;32;15024824;-68
2021/10/18 09:29:52;;;;;;;33.55;18.67;;;;;;;23.41;44.79;100488.09;4444977;32;20093;-68
2021/10/18 09:35:11;;;;;;;30.58;17.73;;;;;;;24.40;43.09;100501.53;3966582;32;15028374;-70
2021/10/18 09:37:39;;;;;;;32.90;18.85;;;;;;;24.40;43.09;100501.53;4430885;32;20122;-71
2021/10/18 09:40:05;;;;;;;30.25;18.05;;;;;;;23.44;44.52;100484.91;4434076;32;20072;-69
2021/10/18 09:42:31;;;;;;;30.98;17.48;;;;;;;23.62;44.31;100488.44;4431606;32;20071;-68
2021/10/18 10:58:00;;;;;;;28.17;16.83;;;;;;;24.88;42.85;100466.91;3978662;32;15028681;-69
2021/10/18 11:00:37;;;;;;;25.55;16.37;;;;;;;24.88;42.85;100466.91;4426518;32;20541;-68
2021/10/18 11:08:37;;;;;;;30.70;15.82;;;;;;;25.01;42.78;100443.97;3966641;32;15025187;-68
2021/10/18 11:13:49;;;;;;;23.27;15.10;;;;;;;24.58;44.65;100430.97;3974526;32;15024488;-69
2021/10/18 11:16:16;;;;;;;26.92;15.65;;;;;;;24.58;44.65;100430.97;4428373;32;20160;-69
2021/10/18 11:18:46;;;;;;;29.92;15.82;;;;;;;24.37;44.25;100438.53;4428596;32;20366;-69
2021/10/18 11:21:19;;;;;;;29.63;16.35;;;;;;;24.61;44.02;100441.38;4429288;32;20174;-69
2021/10/18 11:26:39;;;;;;;24.83;14.77;;;;;;;25.23;43.64;100431.34;3976561;32;15036263;-69
2021/10/18 11:29:07;;;;;;;25.48;15.82;;;;;;;25.23;43.64;100431.34;4428254;32;20087;-69
2021/10/18 11:31:36;;;;;;;29.50;16.27;;;;;;;24.88;44.28;100431.62;4429119;32;20573;-69
2021/10/18 11:34:19;;;;;;;27.92;16.65;;;;;;;24.83;44.57;100423.84;4429640;32;20073;-69
2021/10/18 11:36:48;;;;;;;21.80;14.45;;;;;;;24.61;45.07;100410.50;4429877;32;20139;-69
2021/10/18 11:39:17;;;;;;;23.48;15.35;;;;;;;24.68;45.00;100415.69;4431306;32;20076;-69
2021/10/18 11:42:07;;;;;;;24.75;15.25;;;;;;;24.36;45.81;100411.88;4428564;32;20577;-69
2021/10/18 11:47:37;;;;;;;26.83;16.58;;;;;;;24.70;45.34;100404.38;3966152;32;15022796;-69
2021/10/18 11:50:15;;;;;;;27.15;16.15;;;;;;;24.70;45.34;100404.38;4416041;32;20092;-69
2021/10/18 11:52:45;;;;;;;27.52;16.02;;;;;;;24.18;46.50;100401.12;4416871;32;20141;-69
2021/10/18 11:55:14;;;;;;;27.98;16.48;;;;;;;24.40;46.34;100400.84;4416287;32;20085;-69
2021/10/18 11:57:43;;;;;;;31.35;17.05;;;;;;;24.14;46.67;100403.53;4415839;32;20077;-69
2021/10/18 12:00:12;;;;;;;30.73;17.33;;;;;;;24.44;46.33;100391.91;4417079;32;20094;-69
2021/10/18 12:02:41;;;;;;;30.00;15.77;;;;;;;24.43;46.15;100393.22;4416428;32;20132;-69
2021/10/18 12:05:08;;;;;;;27.33;16.33;;;;;;;24.40;46.35;100400.84;4414908;32;20060;-69
2021/10/18 12:07:51;;;;;;;27.65;15.90;;;;;;;24.03;47.01;100386.41;4412929;32;20062;-69
2021/10/18 12:10:22;;;;;;;27.05;16.08;;;;;;;24.48;46.21;100389.50;4414974;32;20125;-70
2021/10/18 12:18:23;;;;;;;32.28;16.25;;;;;;;25.02;45.35;100364.91;4449166;31;20096;-69
2021/10/18 12:20:52;;;;;;;27.25;15.38;;;;;;;25.02;45.35;100364.91;3983342;32;15012721;-69
2021/10/18 12:26:02;;;;;;;28.12;15.93;;;;;;;25.04;45.56;100359.37;3977588;32;15022809;-70
2021/10/18 12:28:56;;;;;;;30.73;15.57;;;;;;;25.04;45.56;100359.37;4427739;32;20029;-70
2021/10/18 12:37:05;;;;;;;25.42;15.55;;;;;;;24.90;45.67;100372.16;3965553;32;15025900;-70
2021/10/18 12:42:13;;;;;;;29.80;15.77;;;;;;;24.68;47.00;100363.88;3968693;32;15025271;-70
2021/10/18 12:44:42;;;;;;;27.35;16.00;;;;;;;24.68;47.00;100363.88;4419828;32;20093;-70
2021/10/18 12:47:15;;;;;;;26.05;16.23;;;;;;;24.34;47.58;100371.38;4419813;32;20052;-70
2021/10/18 12:49:42;;;;;;;26.58;16.17;;;;;;;24.36;47.74;100360.09;4416364;32;20064;-70
2021/10/18 12:52:09;;;;;;;26.58;16.00;;;;;;;24.13;48.44;100361.72;4418796;32;20034;-70
2021/10/18 12:57:13;;;;;;;26.35;16.77;;;;;;;24.46;48.29;100369.91;3968941;32;15032537;-69
2021/10/18 13:00:15;;;;;;;24.30;15.05;;;;;;;24.46;48.29;100369.91;4419788;32;20526;-70
2021/10/18 13:02:46;;;;;;;24.50;14.60;;;;;;;24.19;48.50;100355.87;4416106;32;20034;-70
2021/10/18 13:08:03;;;;;;;25.45;16.27;;;;;;;24.52;48.60;100344.72;3971045;32;15023273;-70
2021/10/18 13:10:32;;;;;;;23.77;15.20;;;;;;;24.52;48.60;100344.72;4427460;32;20114;-68
2021/10/18 13:13:02;;;;;;;22.55;13.48;;;;;;;24.04;48.96;100330.47;4424462;32;20057;-71